地図

経路データ

SID SEASON NUMBER BASIN SUBBASIN NAME ISO_TIME NATURE LAT LON WMO_WIND WMO_PRES WMO_AGENCY TRACK_TYPE DIST2LAND LANDFALL IFLAG USA_AGENCY USA_ATCF_ID USA_LAT USA_LON USA_RECORD USA_STATUS USA_WIND USA_PRES USA_SSHS USA_R34_NE USA_R34_SE USA_R34_SW USA_R34_NW USA_R50_NE USA_R50_SE USA_R50_SW USA_R50_NW USA_R64_NE USA_R64_SE USA_R64_SW USA_R64_NW USA_POCI USA_ROCI USA_RMW USA_EYE TOKYO_LAT TOKYO_LON TOKYO_GRADE TOKYO_WIND TOKYO_PRES TOKYO_R50_DIR TOKYO_R50_LONG TOKYO_R50_SHORT TOKYO_R30_DIR TOKYO_R30_LONG TOKYO_R30_SHORT TOKYO_LAND CMA_LAT CMA_LON CMA_CAT CMA_WIND CMA_PRES HKO_LAT HKO_LON HKO_CAT HKO_WIND HKO_PRES NEWDELHI_LAT NEWDELHI_LON NEWDELHI_GRADE NEWDELHI_WIND NEWDELHI_PRES NEWDELHI_CI NEWDELHI_DP NEWDELHI_POCI REUNION_LAT REUNION_LON REUNION_TYPE REUNION_WIND REUNION_PRES REUNION_TNUM REUNION_CI REUNION_RMW REUNION_R34_NE REUNION_R34_SE REUNION_R34_SW REUNION_R34_NW REUNION_R50_NE REUNION_R50_SE REUNION_R50_SW REUNION_R50_NW REUNION_R64_NE REUNION_R64_SE REUNION_R64_SW REUNION_R64_NW BOM_LAT BOM_LON BOM_TYPE BOM_WIND BOM_PRES BOM_TNUM BOM_CI BOM_RMW BOM_R34_NE BOM_R34_SE BOM_R34_SW BOM_R34_NW BOM_R50_NE BOM_R50_SE BOM_R50_SW BOM_R50_NW BOM_R64_NE BOM_R64_SE BOM_R64_SW BOM_R64_NW BOM_ROCI BOM_POCI BOM_EYE BOM_POS_METHOD BOM_PRES_METHOD NADI_LAT NADI_LON NADI_CAT NADI_WIND NADI_PRES WELLINGTON_LAT WELLINGTON_LON WELLINGTON_WIND WELLINGTON_PRES DS824_LAT DS824_LON DS824_STAGE DS824_WIND DS824_PRES TD9636_LAT TD9636_LON TD9636_STAGE TD9636_WIND TD9636_PRES TD9635_LAT TD9635_LON TD9635_WIND TD9635_PRES TD9635_ROCI NEUMANN_LAT NEUMANN_LON NEUMANN_CLASS NEUMANN_WIND NEUMANN_PRES MLC_LAT MLC_LON MLC_CLASS MLC_WIND MLC_PRES USA_GUST BOM_GUST BOM_GUST_PER REUNION_GUST REUNION_GUST_PER USA_SEAHGT USA_SEARAD_NE USA_SEARAD_SE USA_SEARAD_SW USA_SEARAD_NW STORM_SPEED STORM_DIR
1945247N21275 1945 55 NA CS NOT_NAMED 1945-09-03 18:00:00 TS 21.0000 -84.6000 30 hurdat_atl main 90 39 O_____________ hurdat_atl AL071945 21.0000 -84.6000 TD 30 -1 13 32
1945247N21275 1945 55 NA CS NOT_NAMED 1945-09-03 21:00:00 TS 21.5525 -84.2278 main 33 0 P_____________ AL071945 21.5525 -84.2278 TD 30 -1 13 34
1945247N21275 1945 55 NA CS NOT_NAMED 1945-09-04 00:00:00 TS 22.1000 -83.8000 30 hurdat_atl main 11 0 O_____________ hurdat_atl AL071945 22.1000 -83.8000 TD 30 -1 14 38
1945247N21275 1945 55 NA NA NOT_NAMED 1945-09-04 03:00:00 TS 22.6427 -83.2925 main 0 0 P_____________ AL071945 22.6427 -83.2925 TD 30 -1 14 40
1945247N21275 1945 55 NA NA NOT_NAMED 1945-09-04 06:00:00 TS 23.2000 -82.8000 30 hurdat_atl main 22 22 O_____________ hurdat_atl AL071945 23.2000 -82.8000 TD 30 -1 14 36
1945247N21275 1945 55 NA NA NOT_NAMED 1945-09-04 09:00:00 TS 23.7999 -82.3826 main 78 78 P_____________ AL071945 23.7999 -82.3826 TD 32 -1 14 28
1945247N21275 1945 55 NA NA NOT_NAMED 1945-09-04 12:00:00 TS 24.4000 -82.1000 35 hurdat_atl main 127 87 O_____________ hurdat_atl AL071945 24.4000 -82.1000 TS 35 0 12 17
1945247N21275 1945 55 NA GM NOT_NAMED 1945-09-04 15:00:00 TS 24.9648 -81.9895 main 83 53 P_____________ AL071945 24.9648 -81.9895 TS 35 0 11 5
1945247N21275 1945 55 NA GM NOT_NAMED 1945-09-04 18:00:00 TS 25.5000 -82.0000 35 hurdat_atl main 53 14 O_____________ hurdat_atl AL071945 25.5000 -82.0000 TS 35 0 10 4
1945247N21275 1945 55 NA GM NOT_NAMED 1945-09-04 21:00:00 TS 26.0067 -81.9164 main 14 9 P_____________ AL071945 26.0067 -81.9164 TS 35 0 10 355
1945247N21275 1945 55 NA GM NOT_NAMED 1945-09-05 00:00:00 TS 26.5000 -82.1000 35 hurdat_atl main 9 9 O_____________ hurdat_atl AL071945 26.5000 -82.1000 L TS 35 0 13 322
1945247N21275 1945 55 NA GM NOT_NAMED 1945-09-05 03:00:00 TS 27.0002 -82.7923 main 37 37 P_____________ AL071945 27.0002 -82.7923 TS 35 0 18 303
1945247N21275 1945 55 NA GM NOT_NAMED 1945-09-05 06:00:00 TS 27.5000 -83.8000 35 hurdat_atl main 99 99 O_____________ hurdat_atl AL071945 27.5000 -83.8000 TS 35 0 21 298
1945247N21275 1945 55 NA GM NOT_NAMED 1945-09-05 09:00:00 TS 28.0161 -84.9144 main 189 142 P_____________ AL071945 28.0161 -84.9144 TS 32 -1 22 297
1945247N21275 1945 55 NA GM NOT_NAMED 1945-09-05 12:00:00 TS 28.5000 -86.0000 30 hurdat_atl main 146 140 O_____________ hurdat_atl AL071945 28.5000 -86.0000 TD 30 -1 19 298
1945247N21275 1945 55 NA GM NOT_NAMED 1945-09-05 15:00:00 TS 28.9213 -86.8187 main 160 111 P_____________ AL071945 28.9213 -86.8187 TD 30 -1 15 301
1945247N21275 1945 55 NA GM NOT_NAMED 1945-09-05 18:00:00 TS 29.3000 -87.5000 30 hurdat_atl main 111 66 O_____________ hurdat_atl AL071945 29.3000 -87.5000 TD 30 -1 14 302
1945247N21275 1945 55 NA GM NOT_NAMED 1945-09-05 21:00:00 TS 29.6572 -88.1880 main 59 33 P_____________ AL071945 29.6572 -88.1880 TD 30 -1 13 302
1945247N21275 1945 55 NA GM NOT_NAMED 1945-09-06 00:00:00 TS 30.0000 -88.8000 30 hurdat_atl main 34 0 O_____________ hurdat_atl AL071945 30.0000 -88.8000 TD 30 -1 12 305
1945247N21275 1945 55 NA NA NOT_NAMED 1945-09-06 03:00:00 TS 30.3570 -89.3230 main 0 0 P_____________ AL071945 30.3570 -89.3230 TD 27 -1 11 309
1945247N21275 1945 55 NA NA NOT_NAMED 1945-09-06 06:00:00 TS 30.7000 -89.8000 25 hurdat_atl main 0 0 O_____________ hurdat_atl AL071945 30.7000 -89.8000 TD 25 -1 11 308
1945247N21275 1945 55 NA NA NOT_NAMED 1945-09-06 09:00:00 TS 31.0072 -90.2930 main 0 0 P_____________ AL071945 31.0072 -90.2930 TD 25 -1 10 305
1945247N21275 1945 55 NA NA NOT_NAMED 1945-09-06 12:00:00 TS 31.3000 -90.8000 25 hurdat_atl main 0 0 O_____________ hurdat_atl AL071945 31.3000 -90.8000 TD 25 -1 11 303
1945247N21275 1945 55 NA NA NOT_NAMED 1945-09-06 15:00:00 TS 31.5981 -91.3392 main 0 0 P_____________ AL071945 31.5981 -91.3392 TD 22 -1 11 303
1945247N21275 1945 55 NA NA NOT_NAMED 1945-09-06 18:00:00 TS 31.9000 -91.9000 20 hurdat_atl main 0 O_____________ hurdat_atl AL071945 31.9000 -91.9000 TD 20 -1 11 302

IBTrACS Databaseについて

本データベースは、米国NOAAが公開する1842年以降の世界の熱帯低気圧のベストトラックデータアーカイブInternational Best Track Archive for Climate Stewardship (IBTrACS)を、ウェブで閲覧しやすい形式に変換したものです。

最終更新日:2021-10-08